Time;durP1;ratioP1;P1;durP2;ratioP2;P2;SDS_P1;SDS_P2;PMS_P1;PMS_P2;Temp;Humidity;BMP_temperature;BMP_pressure;BME280_temperature;BME280_humidity;BME280_pressure;Samples;Min_cycle;Max_cycle;Signal;HPM_P1;HPM_P2
2024/01/27 00:01:30;;;;;;;10.40;3.40;;;;;;;;;;5005405;28;20455;-84
2024/01/27 00:03:57;;;;;;;5.40;2.27;;;;;;;;;;5006554;28;20459;-86
2024/01/27 00:06:24;;;;;;;10.33;3.10;;;;;;;;;;5004180;28;20490;-83
2024/01/27 00:08:51;;;;;;;11.30;3.80;;;;;;;;;;5003055;28;20814;-85
2024/01/27 00:11:19;;;;;;;11.50;3.27;;;;;;;;;;5012945;28;20465;-86
2024/01/27 00:13:47;;;;;;;6.37;2.93;;;;;;;;;;5007583;28;20491;-85
2024/01/27 00:16:14;;;;;;;6.43;2.70;;;;;;;;;;5010180;28;20471;-88
2024/01/27 00:18:41;;;;;;;8.80;3.07;;;;;;;;;;5020319;28;21074;-84
2024/01/27 00:21:09;;;;;;;7.60;2.97;;;;;;;;;;4998678;28;20538;-87
2024/01/27 00:23:36;;;;;;;9.20;3.00;;;;;;;;;;5007446;28;20957;-86
2024/01/27 00:26:03;;;;;;;12.77;3.70;;;;;;;;;;5005469;28;20447;-86
2024/01/27 00:28:31;;;;;;;6.80;2.50;;;;;;;;;;5007650;28;20447;-83
2024/01/27 00:30:59;;;;;;;7.80;2.10;;;;;;;;;;5005536;28;20454;-84
2024/01/27 00:33:26;;;;;;;9.27;3.43;;;;;;;;;;5003740;28;20510;-84
2024/01/27 00:35:53;;;;;;;8.40;2.70;;;;;;;;;;5006241;28;20973;-85
2024/01/27 00:38:21;;;;;;;8.50;3.50;;;;;;;;;;4999259;28;20468;-86
2024/01/27 00:40:49;;;;;;;7.60;3.00;;;;;;;;;;5005156;28;20458;-85
2024/01/27 00:43:16;;;;;;;6.80;3.00;;;;;;;;;;5008659;28;20463;-85
2024/01/27 00:45:43;;;;;;;7.60;2.77;;;;;;;;;;5000748;28;20494;-83
2024/01/27 00:48:10;;;;;;;7.47;2.87;;;;;;;;;;5003229;28;20475;-84
2024/01/27 00:50:38;;;;;;;7.00;2.90;;;;;;;;;;4999783;28;20489;-85
2024/01/27 00:53:08;;;;;;;10.33;2.87;;;;;;;;;;5001369;28;20452;-85
2024/01/27 00:55:39;;;;;;;13.43;2.80;;;;;;;;;;5003227;28;20765;-85
2024/01/27 00:58:07;;;;;;;7.13;2.60;;;;;;;;;;5001671;28;20490;-87
2024/01/27 01:00:34;;;;;;;9.07;2.83;;;;;;;;;;5004738;28;20467;-85
2024/01/27 01:03:02;;;;;;;7.77;2.77;;;;;;;;;;5005875;28;20543;-87
2024/01/27 01:05:29;;;;;;;13.27;3.80;;;;;;;;;;5012784;28;20435;-84
2024/01/27 01:07:56;;;;;;;7.43;2.90;;;;;;;;;;5023908;28;20829;-84
2024/01/27 01:10:23;;;;;;;9.60;2.23;;;;;;;;;;5018279;28;20463;-85
2024/01/27 01:12:56;;;;;;;9.40;2.60;;;;;;;;;;5018445;28;21606;-86
2024/01/27 01:15:24;;;;;;;11.50;3.07;;;;;;;;;;5012369;28;20480;-85
2024/01/27 01:17:51;;;;;;;7.90;2.77;;;;;;;;;;5004935;28;21045;-83
2024/01/27 01:20:18;;;;;;;5.50;2.97;;;;;;;;;;4997596;28;20472;-86
2024/01/27 01:22:46;;;;;;;12.03;2.97;;;;;;;;;;5002703;28;20469;-87
2024/01/27 01:25:13;;;;;;;7.30;2.77;;;;;;;;;;5000936;28;20458;-86
2024/01/27 01:27:40;;;;;;;9.03;2.40;;;;;;;;;;5002947;28;20483;-84
2024/01/27 01:30:07;;;;;;;5.93;2.10;;;;;;;;;;5001088;28;20880;-85
2024/01/27 01:32:35;;;;;;;7.80;2.57;;;;;;;;;;5003485;28;20493;-86
2024/01/27 01:35:06;;;;;;;8.30;2.17;;;;;;;;;;4998939;28;20510;-84
2024/01/27 01:37:33;;;;;;;7.17;2.47;;;;;;;;;;4997446;28;20483;-85
2024/01/27 01:40:00;;;;;;;18.77;3.30;;;;;;;;;;4997873;28;20470;-84
2024/01/27 01:42:29;;;;;;;9.87;2.50;;;;;;;;;;5004378;28;20517;-85
2024/01/27 01:44:56;;;;;;;6.97;2.60;;;;;;;;;;5005326;28;20462;-84
2024/01/27 01:47:23;;;;;;;10.93;2.83;;;;;;;;;;5007496;28;20471;-85
2024/01/27 01:49:51;;;;;;;5.77;2.40;;;;;;;;;;5010750;28;21302;-86
2024/01/27 01:52:20;;;;;;;6.00;2.03;;;;;;;;;;5005084;28;20579;-87
2024/01/27 01:54:48;;;;;;;11.87;2.47;;;;;;;;;;5010490;28;20458;-87
2024/01/27 01:57:16;;;;;;;4.47;2.23;;;;;;;;;;5011412;28;20501;-85
2024/01/27 01:59:43;;;;;;;10.77;2.23;;;;;;;;;;5015905;28;20462;-86
2024/01/27 02:02:13;;;;;;;7.77;2.17;;;;;;;;;;5006295;28;20462;-86
2024/01/27 02:04:44;;;;;;;5.53;2.40;;;;;;;;;;5009323;28;20455;-85
2024/01/27 02:07:11;;;;;;;4.20;2.70;;;;;;;;;;5010113;28;20467;-85
2024/01/27 02:09:38;;;;;;;9.13;5.40;;;;;;;;;;5017565;28;20446;-84
2024/01/27 02:12:05;;;;;;;10.43;3.30;;;;;;;;;;5016775;28;20481;-84
2024/01/27 02:14:33;;;;;;;8.47;2.50;;;;;;;;;;5014090;28;20502;-83
2024/01/27 02:17:00;;;;;;;6.30;2.50;;;;;;;;;;5000747;28;20490;-84
2024/01/27 02:19:27;;;;;;;5.30;2.20;;;;;;;;;;4986811;28;20467;-85
2024/01/27 02:21:54;;;;;;;10.07;2.90;;;;;;;;;;5028106;28;20507;-86
2024/01/27 02:24:22;;;;;;;5.53;2.37;;;;;;;;;;5022433;28;20530;-84
2024/01/27 02:26:49;;;;;;;5.73;2.77;;;;;;;;;;5030859;28;20459;-83
2024/01/27 02:29:16;;;;;;;8.67;2.73;;;;;;;;;;5029604;28;20465;-84
2024/01/27 02:31:43;;;;;;;12.10;2.87;;;;;;;;;;5034197;28;20470;-85
2024/01/27 02:34:11;;;;;;;4.77;3.03;;;;;;;;;;5027436;28;20458;-83
2024/01/27 02:36:38;;;;;;;7.63;2.67;;;;;;;;;;5025746;28;20525;-85
2024/01/27 02:39:06;;;;;;;7.13;2.73;;;;;;;;;;5016922;28;20469;-85
2024/01/27 02:41:38;;;;;;;5.50;2.50;;;;;;;;;;5029971;28;20484;-83
2024/01/27 02:44:06;;;;;;;4.10;2.70;;;;;;;;;;5030016;28;20446;-84
2024/01/27 02:46:33;;;;;;;9.40;2.77;;;;;;;;;;5023428;28;20474;-85
2024/01/27 02:49:00;;;;;;;6.57;2.43;;;;;;;;;;5017036;28;20542;-85
2024/01/27 02:51:27;;;;;;;7.63;3.17;;;;;;;;;;5008046;28;20471;-85
2024/01/27 02:53:54;;;;;;;6.57;2.83;;;;;;;;;;5001941;28;20461;-86
2024/01/27 02:56:22;;;;;;;9.60;2.90;;;;;;;;;;5005706;28;20570;-87
2024/01/27 02:58:49;;;;;;;4.53;2.53;;;;;;;;;;5000997;28;20472;-86
2024/01/27 03:01:16;;;;;;;7.67;2.67;;;;;;;;;;5000970;28;20473;-85
2024/01/27 03:03:47;;;;;;;7.00;3.03;;;;;;;;;;5004470;28;20493;-86
2024/01/27 03:06:16;;;;;;;9.27;3.00;;;;;;;;;;5009928;28;20513;-83
2024/01/27 03:08:44;;;;;;;4.90;2.70;;;;;;;;;;5031699;28;20506;-85
2024/01/27 03:11:12;;;;;;;10.07;3.23;;;;;;;;;;5013500;28;20542;-86
2024/01/27 03:13:44;;;;;;;6.47;2.80;;;;;;;;;;5007390;28;20466;-86
2024/01/27 03:16:17;;;;;;;8.47;2.87;;;;;;;;;;5001313;28;20538;-85
2024/01/27 03:18:44;;;;;;;5.73;2.60;;;;;;;;;;4998896;28;20480;-84
2024/01/27 03:21:11;;;;;;;5.47;2.57;;;;;;;;;;5001328;28;20464;-85
2024/01/27 03:23:38;;;;;;;10.33;3.30;;;;;;;;;;5003072;28;20557;-84
2024/01/27 03:26:06;;;;;;;8.67;2.97;;;;;;;;;;5003229;28;20566;-87
2024/01/27 03:28:33;;;;;;;6.63;2.30;;;;;;;;;;5003661;28;20471;-85
2024/01/27 03:31:00;;;;;;;9.40;2.77;;;;;;;;;;4998232;28;20752;-87
2024/01/27 03:33:30;;;;;;;7.50;3.07;;;;;;;;;;5002829;28;20455;-85
2024/01/27 03:35:58;;;;;;;7.60;3.10;;;;;;;;;;5001759;28;20504;-85
2024/01/27 03:38:25;;;;;;;7.93;2.77;;;;;;;;;;5004423;28;20474;-84
2024/01/27 03:40:52;;;;;;;8.10;2.60;;;;;;;;;;5015140;28;20456;-87
2024/01/27 03:43:19;;;;;;;5.83;2.70;;;;;;;;;;4991414;28;20455;-84
2024/01/27 03:45:47;;;;;;;8.87;2.87;;;;;;;;;;4998101;28;20457;-85
2024/01/27 03:48:14;;;;;;;7.00;3.33;;;;;;;;;;5017967;28;20479;-86
2024/01/27 03:50:41;;;;;;;8.43;3.40;;;;;;;;;;5006180;28;20562;-84
2024/01/27 03:53:11;;;;;;;8.73;3.03;;;;;;;;;;5008533;28;20439;-86
2024/01/27 03:55:38;;;;;;;9.00;2.87;;;;;;;;;;4996597;28;20486;-86
2024/01/27 03:58:05;;;;;;;10.87;3.67;;;;;;;;;;5004682;28;20537;-86
2024/01/27 04:00:33;;;;;;;8.50;2.20;;;;;;;;;;4996825;28;20450;-88
2024/01/27 04:03:03;;;;;;;9.20;2.70;;;;;;;;;;4997435;28;20446;-86
2024/01/27 04:05:31;;;;;;;8.60;3.13;;;;;;;;;;4997828;28;20491;-86
2024/01/27 04:07:58;;;;;;;8.57;2.90;;;;;;;;;;5001256;28;20491;-87
2024/01/27 04:10:25;;;;;;;7.47;2.90;;;;;;;;;;5002916;28;20473;-87
2024/01/27 04:12:53;;;;;;;9.80;3.73;;;;;;;;;;5000322;28;20830;-87
2024/01/27 04:15:20;;;;;;;9.00;3.27;;;;;;;;;;4999732;28;20617;-85
2024/01/27 04:17:51;;;;;;;8.13;3.90;;;;;;;;;;5005906;28;20486;-88
2024/01/27 04:20:19;;;;;;;10.33;3.73;;;;;;;;;;5002576;28;20466;-86
2024/01/27 04:22:46;;;;;;;7.60;3.60;;;;;;;;;;5011057;28;20446;-86
2024/01/27 04:25:13;;;;;;;6.13;3.20;;;;;;;;;;5009563;28;20555;-83
2024/01/27 04:27:44;;;;;;;11.80;3.90;;;;;;;;;;5001795;28;20469;-83
2024/01/27 04:30:12;;;;;;;7.87;3.33;;;;;;;;;;4999388;28;20509;-85
2024/01/27 04:32:40;;;;;;;8.33;3.20;;;;;;;;;;5001750;28;20562;-85
2024/01/27 04:35:10;;;;;;;7.80;3.47;;;;;;;;;;5006224;28;21271;-87
2024/01/27 04:37:38;;;;;;;8.00;3.53;;;;;;;;;;5019430;28;20468;-83
2024/01/27 04:40:05;;;;;;;9.43;3.40;;;;;;;;;;5021493;28;20540;-84
2024/01/27 04:42:36;;;;;;;7.07;3.10;;;;;;;;;;5013801;28;20491;-86
2024/01/27 04:45:04;;;;;;;8.13;3.37;;;;;;;;;;5011207;28;20534;-84
2024/01/27 04:47:32;;;;;;;8.60;3.10;;;;;;;;;;5014453;28;20480;-82
2024/01/27 04:49:59;;;;;;;11.43;5.33;;;;;;;;;;5009050;28;20456;-84
2024/01/27 04:52:26;;;;;;;8.80;4.13;;;;;;;;;;5008735;28;20815;-85
2024/01/27 04:54:55;;;;;;;8.40;2.90;;;;;;;;;;5005619;28;20488;-85
2024/01/27 04:57:22;;;;;;;5.33;3.23;;;;;;;;;;5007521;28;20481;-84
2024/01/27 04:59:49;;;;;;;5.73;2.87;;;;;;;;;;5005322;28;20450;-84
2024/01/27 05:02:16;;;;;;;12.37;3.40;;;;;;;;;;5004216;28;20486;-84
2024/01/27 05:04:44;;;;;;;4.67;3.00;;;;;;;;;;4999806;28;20466;-85
2024/01/27 05:07:11;;;;;;;5.77;2.70;;;;;;;;;;5003597;28;20485;-85
2024/01/27 05:09:38;;;;;;;7.47;2.90;;;;;;;;;;5003041;28;20454;-84
2024/01/27 05:12:05;;;;;;;7.80;2.83;;;;;;;;;;5001974;28;20484;-87
2024/01/27 05:14:33;;;;;;;5.30;3.40;;;;;;;;;;5007627;28;20453;-85
2024/01/27 05:17:00;;;;;;;11.20;3.33;;;;;;;;;;5009823;28;20484;-85
2024/01/27 05:19:27;;;;;;;7.03;3.20;;;;;;;;;;5002658;28;20452;-85
2024/01/27 05:21:55;;;;;;;8.70;3.60;;;;;;;;;;5018072;28;20504;-85
2024/01/27 05:24:22;;;;;;;5.43;2.87;;;;;;;;;;5000503;28;20514;-84
2024/01/27 05:26:49;;;;;;;7.53;2.50;;;;;;;;;;5004313;28;20489;-84
2024/01/27 05:29:16;;;;;;;5.00;3.30;;;;;;;;;;4996702;28;20472;-84
2024/01/27 05:31:44;;;;;;;5.60;3.60;;;;;;;;;;5004492;28;20459;-85
2024/01/27 05:34:11;;;;;;;7.67;2.80;;;;;;;;;;4996877;28;20504;-85
2024/01/27 05:36:39;;;;;;;8.80;2.73;;;;;;;;;;5002309;28;20571;-87
2024/01/27 05:39:06;;;;;;;6.83;3.10;;;;;;;;;;4998417;28;20456;-84
2024/01/27 05:41:34;;;;;;;7.63;3.37;;;;;;;;;;5007344;28;20441;-84
2024/01/27 05:44:01;;;;;;;5.10;3.30;;;;;;;;;;4996825;28;21055;-86
2024/01/27 05:46:29;;;;;;;6.97;2.70;;;;;;;;;;4999589;28;20479;-86
2024/01/27 05:49:01;;;;;;;4.23;2.67;;;;;;;;;;5015097;28;20464;-86
2024/01/27 05:51:29;;;;;;;9.40;3.37;;;;;;;;;;5009839;28;20449;-84
2024/01/27 05:53:58;;;;;;;7.03;2.80;;;;;;;;;;5006946;28;20457;-85
2024/01/27 05:56:26;;;;;;;7.13;3.10;;;;;;;;;;5000610;28;20500;-86
2024/01/27 05:58:53;;;;;;;10.97;2.90;;;;;;;;;;5002989;28;21875;-86
2024/01/27 06:01:20;;;;;;;4.40;2.83;;;;;;;;;;4984093;28;20453;-86
2024/01/27 06:03:47;;;;;;;6.67;3.43;;;;;;;;;;5005057;28;20457;-86
2024/01/27 06:06:15;;;;;;;4.13;2.43;;;;;;;;;;5003544;28;21119;-85
2024/01/27 06:08:42;;;;;;;8.47;3.33;;;;;;;;;;5012213;28;20464;-83
2024/01/27 06:11:09;;;;;;;8.30;4.20;;;;;;;;;;5018414;28;20465;-83
2024/01/27 06:13:40;;;;;;;6.77;2.43;;;;;;;;;;5016571;28;20460;-85
2024/01/27 06:16:11;;;;;;;5.37;3.00;;;;;;;;;;5007272;28;20469;-84
2024/01/27 06:18:39;;;;;;;6.53;2.97;;;;;;;;;;5004493;28;20480;-86
2024/01/27 06:21:06;;;;;;;12.03;3.40;;;;;;;;;;5005043;28;20461;-86
2024/01/27 06:23:34;;;;;;;9.20;3.97;;;;;;;;;;5006247;28;20454;-86
2024/01/27 06:26:05;;;;;;;5.63;2.60;;;;;;;;;;5001427;28;20464;-85
2024/01/27 06:28:34;;;;;;;4.60;2.60;;;;;;;;;;5016564;28;20512;-87
2024/01/27 06:31:07;;;;;;;5.50;2.80;;;;;;;;;;5003920;28;20471;-84
2024/01/27 06:33:37;;;;;;;9.77;2.80;;;;;;;;;;4998702;28;20543;-85
2024/01/27 06:36:04;;;;;;;12.27;3.97;;;;;;;;;;4997153;28;20483;-86
2024/01/27 06:38:32;;;;;;;11.63;3.33;;;;;;;;;;4999185;28;20548;-84
2024/01/27 06:40:59;;;;;;;4.90;2.50;;;;;;;;;;4995940;28;20448;-84
2024/01/27 06:43:26;;;;;;;6.37;2.47;;;;;;;;;;5003992;28;20435;-86
2024/01/27 06:45:54;;;;;;;5.03;2.90;;;;;;;;;;5003770;28;20490;-86
2024/01/27 06:48:27;;;;;;;4.43;2.13;;;;;;;;;;5001019;28;20448;-84
2024/01/27 06:50:55;;;;;;;5.00;3.27;;;;;;;;;;5003485;28;20456;-84
2024/01/27 06:53:22;;;;;;;8.03;3.27;;;;;;;;;;5008542;28;20727;-84
2024/01/27 06:55:49;;;;;;;9.07;2.93;;;;;;;;;;5009626;28;20929;-87
2024/01/27 06:58:16;;;;;;;5.77;3.00;;;;;;;;;;5001885;28;20909;-87
2024/01/27 07:00:44;;;;;;;9.87;3.27;;;;;;;;;;5001371;28;20508;-86
2024/01/27 07:03:13;;;;;;;13.17;3.60;;;;;;;;;;5006943;28;20441;-85
2024/01/27 07:05:40;;;;;;;10.70;2.80;;;;;;;;;;5007857;28;20456;-85
2024/01/27 07:08:08;;;;;;;5.97;2.70;;;;;;;;;;5005897;28;20479;-84
2024/01/27 07:10:36;;;;;;;10.17;3.20;;;;;;;;;;5004134;28;20516;-85
2024/01/27 07:13:06;;;;;;;11.17;3.60;;;;;;;;;;5004650;28;20462;-85
2024/01/27 07:15:33;;;;;;;11.20;3.73;;;;;;;;;;5003525;28;20485;-87
2024/01/27 07:18:00;;;;;;;10.23;3.43;;;;;;;;;;5005790;28;20496;-87
2024/01/27 07:20:29;;;;;;;3.93;3.20;;;;;;;;;;5001110;28;20455;-86
2024/01/27 07:22:56;;;;;;;6.53;3.10;;;;;;;;;;5005696;28;20446;-83
2024/01/27 07:25:24;;;;;;;12.03;3.53;;;;;;;;;;5002589;28;20452;-85
2024/01/27 07:27:53;;;;;;;5.40;2.80;;;;;;;;;;5005218;28;20466;-85
2024/01/27 07:30:20;;;;;;;8.73;3.50;;;;;;;;;;5008120;28;20511;-83
2024/01/27 07:32:47;;;;;;;4.73;3.03;;;;;;;;;;5007608;28;20465;-86
2024/01/27 07:35:15;;;;;;;6.70;3.03;;;;;;;;;;5006938;28;20461;-86
2024/01/27 07:37:43;;;;;;;10.10;3.30;;;;;;;;;;5001425;28;20514;-85
2024/01/27 07:40:10;;;;;;;5.20;2.87;;;;;;;;;;5005093;28;20443;-85
2024/01/27 07:42:37;;;;;;;6.47;3.30;;;;;;;;;;4999895;28;20447;-85
2024/01/27 07:45:05;;;;;;;6.20;2.40;;;;;;;;;;5006315;28;20466;-84
2024/01/27 07:47:35;;;;;;;11.87;3.13;;;;;;;;;;5005352;28;20501;-83
2024/01/27 07:50:02;;;;;;;7.33;3.17;;;;;;;;;;5008232;28;20454;-87
2024/01/27 07:52:30;;;;;;;10.80;2.53;;;;;;;;;;5009267;28;20465;-85
2024/01/27 07:54:58;;;;;;;11.87;3.27;;;;;;;;;;5008971;28;20455;-85
2024/01/27 07:57:26;;;;;;;7.97;2.93;;;;;;;;;;5005287;28;20492;-84
2024/01/27 07:59:53;;;;;;;6.13;2.50;;;;;;;;;;5003511;28;20458;-85
2024/01/27 08:02:21;;;;;;;6.23;2.43;;;;;;;;;;5008574;28;20818;-84
2024/01/27 08:04:48;;;;;;;9.63;3.17;;;;;;;;;;5009277;28;20546;-86
2024/01/27 08:07:19;;;;;;;8.37;2.87;;;;;;;;;;5024141;28;20474;-84
2024/01/27 08:09:46;;;;;;;8.87;2.50;;;;;;;;;;5021557;28;21374;-84
2024/01/27 08:12:13;;;;;;;10.00;3.33;;;;;;;;;;5020054;28;20488;-86
2024/01/27 08:14:40;;;;;;;9.67;3.00;;;;;;;;;;5006766;28;20454;-85
2024/01/27 08:17:08;;;;;;;5.87;2.70;;;;;;;;;;5001160;28;20493;-83
2024/01/27 08:19:35;;;;;;;6.60;3.00;;;;;;;;;;4999829;28;20463;-83
2024/01/27 08:22:03;;;;;;;9.60;2.73;;;;;;;;;;4998475;28;20467;-85
2024/01/27 08:24:30;;;;;;;7.37;3.67;;;;;;;;;;5004423;28;20494;-85
2024/01/27 08:26:58;;;;;;;4.83;2.30;;;;;;;;;;5005248;28;20555;-86
2024/01/27 08:29:25;;;;;;;10.40;3.10;;;;;;;;;;5002846;28;20455;-84
2024/01/27 08:31:53;;;;;;;7.60;2.80;;;;;;;;;;5010869;28;20459;-84
2024/01/27 08:34:20;;;;;;;10.50;3.60;;;;;;;;;;5006705;28;20472;-85
2024/01/27 08:36:48;;;;;;;8.30;4.03;;;;;;;;;;5011823;28;20507;-86
2024/01/27 08:39:15;;;;;;;10.93;2.93;;;;;;;;;;5004016;28;20469;-85
2024/01/27 08:41:43;;;;;;;7.80;3.00;;;;;;;;;;5001865;28;20447;-85
2024/01/27 08:44:13;;;;;;;8.07;2.50;;;;;;;;;;5003831;28;21183;-86
2024/01/27 08:46:40;;;;;;;8.73;2.97;;;;;;;;;;4998494;28;20678;-89
2024/01/27 08:49:07;;;;;;;4.63;2.00;;;;;;;;;;5005116;28;20470;-86
2024/01/27 08:51:39;;;;;;;6.37;3.17;;;;;;;;;;5012425;28;20471;-84
2024/01/27 08:54:06;;;;;;;4.83;2.67;;;;;;;;;;5020304;28;20513;-85
2024/01/27 08:56:33;;;;;;;3.40;2.40;;;;;;;;;;5028032;28;20631;-86
2024/01/27 08:59:00;;;;;;;7.40;3.07;;;;;;;;;;5027529;28;20465;-82
2024/01/27 09:01:27;;;;;;;5.57;2.60;;;;;;;;;;5028871;28;20467;-83
2024/01/27 09:03:55;;;;;;;5.17;3.73;;;;;;;;;;5032793;28;20441;-85
2024/01/27 09:06:23;;;;;;;6.00;2.80;;;;;;;;;;5030015;28;20468;-83
2024/01/27 09:08:52;;;;;;;10.40;2.60;;;;;;;;;;5028257;28;20458;-84
2024/01/27 09:11:21;;;;;;;7.77;3.07;;;;;;;;;;5014423;28;20475;-86
2024/01/27 09:13:54;;;;;;;7.30;2.83;;;;;;;;;;5009037;28;21219;-86
2024/01/27 09:16:21;;;;;;;9.93;2.90;;;;;;;;;;5007437;28;20495;-84
2024/01/27 09:18:52;;;;;;;10.20;3.30;;;;;;;;;;5006528;28;20482;-86
2024/01/27 09:21:22;;;;;;;8.10;3.30;;;;;;;;;;5006001;28;20456;-83
2024/01/27 09:23:53;;;;;;;8.77;3.97;;;;;;;;;;5005095;28;20450;-86
2024/01/27 09:26:22;;;;;;;10.70;3.70;;;;;;;;;;5007583;28;20644;-87
2024/01/27 09:28:54;;;;;;;7.20;3.73;;;;;;;;;;5005849;28;20476;-86
2024/01/27 09:31:24;;;;;;;4.03;3.10;;;;;;;;;;5006442;28;20987;-86
2024/01/27 09:33:55;;;;;;;9.80;3.40;;;;;;;;;;5007872;28;21085;-84
2024/01/27 09:36:26;;;;;;;11.50;4.33;;;;;;;;;;5005523;28;20492;-84
2024/01/27 09:38:59;;;;;;;8.33;3.23;;;;;;;;;;5010987;28;20449;-85
2024/01/27 09:44:50;;;;;;;13.80;3.40;;;;;;;;;;5006619;28;20455;-87
2024/01/27 09:47:41;;;;;;;;;;;;;;;;;;;;;
2024/01/27 09:50:18;;;;;;;6.97;3.67;;;;;;;;;;5005999;28;20482;-85
2024/01/27 09:52:46;;;;;;;6.03;3.97;;;;;;;;;;5015033;28;20446;-86
2024/01/27 09:55:13;;;;;;;8.47;4.00;;;;;;;;;;5012078;28;20492;-87
2024/01/27 09:57:41;;;;;;;10.50;3.00;;;;;;;;;;5014728;28;20497;-86
2024/01/27 10:00:22;;;;;;;6.03;4.80;;;;;;;;;;5010231;28;20475;-87
2024/01/27 10:03:10;;;;;;;9.37;4.37;;;;;;;;;;5006214;28;20529;-88
2024/01/27 10:05:40;;;;;;;6.97;3.40;;;;;;;;;;5013223;28;20478;-86
2024/01/27 10:08:08;;;;;;;8.97;4.00;;;;;;;;;;5016696;28;20477;-86
2024/01/27 10:10:38;;;;;;;9.73;3.33;;;;;;;;;;5012029;28;20498;-86
2024/01/27 10:13:10;;;;;;;7.20;3.83;;;;;;;;;;4999956;28;20474;-85
2024/01/27 10:15:37;;;;;;;7.73;3.60;;;;;;;;;;4998352;28;20446;-87
2024/01/27 10:18:08;;;;;;;11.57;3.30;;;;;;;;;;5001054;28;20492;-85
2024/01/27 10:20:36;;;;;;;7.03;3.20;;;;;;;;;;5004502;28;20454;-85
2024/01/27 10:23:13;;;;;;;5.80;3.10;;;;;;;;;;5001684;28;20455;-84
2024/01/27 10:25:41;;;;;;;8.50;3.97;;;;;;;;;;4998638;28;20457;-84
2024/01/27 10:28:08;;;;;;;9.50;4.40;;;;;;;;;;5004822;28;20487;-86
2024/01/27 10:30:37;;;;;;;8.60;3.63;;;;;;;;;;4984838;28;20470;-85
2024/01/27 10:33:04;;;;;;;8.60;4.60;;;;;;;;;;5015793;28;20470;-87
2024/01/27 10:35:31;;;;;;;9.77;3.90;;;;;;;;;;5000288;28;20467;-88
2024/01/27 10:37:59;;;;;;;20.00;4.00;;;;;;;;;;5009542;28;20498;-86
2024/01/27 10:40:28;;;;;;;5.43;3.60;;;;;;;;;;4999377;28;20484;-86
2024/01/27 10:42:59;;;;;;;6.00;3.43;;;;;;;;;;5012549;28;20463;-84
2024/01/27 10:45:27;;;;;;;6.33;4.47;;;;;;;;;;4996412;28;20467;-85
2024/01/27 10:47:55;;;;;;;8.53;3.83;;;;;;;;;;5003528;28;20478;-88
2024/01/27 10:50:24;;;;;;;8.40;3.57;;;;;;;;;;5006152;28;20463;-85
2024/01/27 10:52:52;;;;;;;5.23;3.70;;;;;;;;;;5010825;28;20466;-83
2024/01/27 10:55:21;;;;;;;5.10;3.10;;;;;;;;;;5003953;28;20461;-84
2024/01/27 10:57:48;;;;;;;9.00;4.20;;;;;;;;;;5008196;28;20529;-85
2024/01/27 11:00:16;;;;;;;6.47;3.00;;;;;;;;;;5007917;28;20465;-85
2024/01/27 11:02:45;;;;;;;6.73;3.30;;;;;;;;;;5007272;28;20478;-86
2024/01/27 11:05:14;;;;;;;8.70;3.23;;;;;;;;;;5006942;28;20525;-86
2024/01/27 11:07:42;;;;;;;7.93;3.70;;;;;;;;;;5005463;28;20494;-84
2024/01/27 11:10:09;;;;;;;11.20;3.50;;;;;;;;;;5006333;28;20455;-85
2024/01/27 11:12:37;;;;;;;11.10;4.10;;;;;;;;;;5005128;28;20471;-84
2024/01/27 11:15:04;;;;;;;9.60;4.03;;;;;;;;;;5001002;28;20465;-84
2024/01/27 11:17:41;;;;;;;7.57;3.60;;;;;;;;;;5003817;28;20496;-85
2024/01/27 11:20:11;;;;;;;10.13;3.40;;;;;;;;;;5004843;28;20451;-86
2024/01/27 11:22:43;;;;;;;12.80;4.50;;;;;;;;;;5007007;28;20458;-83
2024/01/27 11:25:10;;;;;;;10.03;3.20;;;;;;;;;;5002883;28;20474;-86
2024/01/27 11:27:39;;;;;;;8.30;4.00;;;;;;;;;;5006415;28;20481;-86
2024/01/27 11:30:13;;;;;;;10.03;3.20;;;;;;;;;;5005058;28;20707;-85
2024/01/27 11:32:41;;;;;;;11.03;4.03;;;;;;;;;;5008357;28;20514;-84
2024/01/27 11:35:09;;;;;;;8.60;3.10;;;;;;;;;;5018336;28;20513;-83
2024/01/27 11:37:37;;;;;;;9.70;3.60;;;;;;;;;;5027434;28;20589;-84
2024/01/27 11:40:06;;;;;;;11.43;3.40;;;;;;;;;;5026869;28;20486;-86
2024/01/27 11:42:33;;;;;;;11.33;4.90;;;;;;;;;;5008437;28;20505;-87
2024/01/27 11:45:01;;;;;;;6.20;3.77;;;;;;;;;;5011325;28;20495;-84
2024/01/27 11:47:29;;;;;;;9.47;3.63;;;;;;;;;;5011281;28;20463;-87
2024/01/27 11:49:58;;;;;;;6.63;3.80;;;;;;;;;;5009115;28;20514;-87
2024/01/27 11:52:25;;;;;;;8.70;3.53;;;;;;;;;;5018862;28;20487;-86
2024/01/27 11:54:59;;;;;;;6.93;2.90;;;;;;;;;;5006634;28;20484;-87
2024/01/27 11:57:27;;;;;;;8.23;3.10;;;;;;;;;;5010563;28;20477;-85
2024/01/27 11:59:57;;;;;;;6.07;3.43;;;;;;;;;;5008864;28;20464;-85
2024/01/27 12:02:25;;;;;;;5.57;3.17;;;;;;;;;;5011952;28;20539;-85
2024/01/27 12:04:53;;;;;;;12.97;3.83;;;;;;;;;;5012521;28;20442;-83
2024/01/27 12:07:21;;;;;;;8.90;3.40;;;;;;;;;;5012755;28;20477;-86
2024/01/27 12:09:50;;;;;;;12.20;3.87;;;;;;;;;;5012809;28;20513;-85
2024/01/27 12:12:17;;;;;;;11.10;3.50;;;;;;;;;;5012422;28;21104;-85
2024/01/27 12:14:51;;;;;;;12.27;4.03;;;;;;;;;;5019018;28;20568;-82
2024/01/27 12:17:19;;;;;;;7.87;3.07;;;;;;;;;;5015613;28;20492;-86
2024/01/27 12:19:51;;;;;;;5.00;3.00;;;;;;;;;;5017111;28;20449;-84
2024/01/27 12:22:26;;;;;;;8.60;4.50;;;;;;;;;;5022472;28;20457;-85
2024/01/27 12:24:54;;;;;;;8.13;3.50;;;;;;;;;;5035523;28;20461;-83
2024/01/27 12:27:22;;;;;;;9.70;3.30;;;;;;;;;;5007810;28;20489;-83
2024/01/27 12:29:51;;;;;;;10.30;3.40;;;;;;;;;;5001004;28;20470;-86
2024/01/27 12:32:19;;;;;;;7.60;3.60;;;;;;;;;;5029216;28;20518;-83
2024/01/27 12:34:47;;;;;;;8.00;3.63;;;;;;;;;;5012742;28;20456;-86
2024/01/27 12:37:16;;;;;;;6.17;3.27;;;;;;;;;;5017240;28;20473;-85
2024/01/27 12:39:44;;;;;;;5.53;3.57;;;;;;;;;;5020002;28;20900;-85
2024/01/27 12:42:12;;;;;;;9.07;4.00;;;;;;;;;;5017940;28;20447;-85
2024/01/27 12:44:41;;;;;;;7.53;4.03;;;;;;;;;;5018480;28;20529;-84
2024/01/27 12:47:10;;;;;;;10.40;3.80;;;;;;;;;;5020906;28;20535;-85
2024/01/27 12:49:37;;;;;;;5.30;3.13;;;;;;;;;;5024928;28;20514;-84
2024/01/27 12:52:05;;;;;;;9.87;5.17;;;;;;;;;;5012893;28;20455;-86
2024/01/27 12:54:32;;;;;;;6.40;3.40;;;;;;;;;;5000719;28;21272;-86
2024/01/27 12:57:01;;;;;;;12.37;3.97;;;;;;;;;;4999400;28;20479;-84
2024/01/27 12:59:28;;;;;;;6.90;3.37;;;;;;;;;;5006265;28;20459;-86
2024/01/27 13:01:56;;;;;;;5.30;2.93;;;;;;;;;;5005424;28;20463;-85
2024/01/27 13:04:23;;;;;;;5.20;3.00;;;;;;;;;;5022382;28;20981;-87
2024/01/27 13:06:54;;;;;;;8.90;3.53;;;;;;;;;;4998356;28;20562;-86
2024/01/27 13:09:21;;;;;;;12.00;3.97;;;;;;;;;;4996816;28;20544;-85
2024/01/27 13:12:19;;;;;;;8.70;3.30;;;;;;;;;;5006532;28;20498;-85
2024/01/27 13:14:46;;;;;;;13.40;3.30;;;;;;;;;;4999949;28;20456;-86
2024/01/27 13:17:16;;;;;;;11.83;3.13;;;;;;;;;;5003854;28;20475;-82
2024/01/27 13:19:45;;;;;;;6.73;2.47;;;;;;;;;;4995641;28;20482;-84
2024/01/27 13:22:12;;;;;;;7.77;3.10;;;;;;;;;;4995940;28;20452;-86
2024/01/27 13:24:42;;;;;;;6.50;3.53;;;;;;;;;;4998829;28;20461;-85
2024/01/27 13:27:10;;;;;;;10.27;2.43;;;;;;;;;;4999281;28;20470;-86
2024/01/27 13:29:39;;;;;;;8.67;2.83;;;;;;;;;;4994567;28;20459;-84
2024/01/27 13:32:07;;;;;;;3.80;2.43;;;;;;;;;;4996041;28;20516;-85
2024/01/27 13:34:34;;;;;;;9.20;3.10;;;;;;;;;;4996411;28;20471;-85
2024/01/27 13:37:04;;;;;;;3.80;2.60;;;;;;;;;;5000607;28;20616;-86
2024/01/27 13:39:31;;;;;;;6.90;2.77;;;;;;;;;;4996276;28;20490;-85
2024/01/27 13:41:58;;;;;;;6.27;2.40;;;;;;;;;;4997808;28;20468;-85
2024/01/27 13:44:25;;;;;;;14.03;3.50;;;;;;;;;;5010133;28;20454;-86
2024/01/27 13:46:53;;;;;;;3.60;2.10;;;;;;;;;;5002323;28;20479;-85
2024/01/27 13:49:21;;;;;;;7.00;2.53;;;;;;;;;;5003531;28;20443;-86
2024/01/27 13:51:50;;;;;;;8.43;3.07;;;;;;;;;;5006415;28;20456;-87
2024/01/27 13:54:20;;;;;;;6.87;2.87;;;;;;;;;;5003419;28;20471;-86
2024/01/27 13:56:50;;;;;;;5.83;2.67;;;;;;;;;;4998489;28;20482;-86
2024/01/27 13:59:17;;;;;;;9.83;2.53;;;;;;;;;;5000838;28;20487;-87
2024/01/27 14:01:44;;;;;;;8.17;1.80;;;;;;;;;;4999292;28;20469;-86
2024/01/27 14:04:12;;;;;;;10.87;3.20;;;;;;;;;;4996940;28;20459;-84
2024/01/27 14:06:44;;;;;;;7.73;2.90;;;;;;;;;;4998716;28;20486;-88
2024/01/27 14:09:13;;;;;;;6.30;2.70;;;;;;;;;;4998576;28;20486;-87
2024/01/27 14:11:40;;;;;;;4.20;1.63;;;;;;;;;;5003546;28;20471;-88
2024/01/27 14:14:07;;;;;;;4.87;1.60;;;;;;;;;;5002028;28;20944;-86
2024/01/27 14:16:35;;;;;;;4.83;2.87;;;;;;;;;;5007970;28;20525;-86
2024/01/27 14:19:02;;;;;;;5.13;2.20;;;;;;;;;;5006825;28;21078;-84
2024/01/27 14:21:29;;;;;;;8.53;2.37;;;;;;;;;;5021990;28;20464;-85
2024/01/27 14:24:02;;;;;;;6.70;2.67;;;;;;;;;;5030870;28;21699;-85
2024/01/27 14:26:29;;;;;;;13.73;3.20;;;;;;;;;;5034367;28;20557;-84
2024/01/27 14:28:57;;;;;;;8.23;3.03;;;;;;;;;;5017624;28;20452;-85
2024/01/27 14:31:24;;;;;;;6.13;2.40;;;;;;;;;;5008865;28;20505;-86
2024/01/27 14:33:52;;;;;;;10.67;3.10;;;;;;;;;;5009290;28;20460;-85
2024/01/27 14:36:23;;;;;;;8.13;2.20;;;;;;;;;;5010915;28;20513;-86
2024/01/27 14:38:51;;;;;;;3.47;2.13;;;;;;;;;;5010084;28;20509;-87
2024/01/27 14:41:18;;;;;;;8.50;3.10;;;;;;;;;;5016990;28;20459;-85
2024/01/27 14:43:49;;;;;;;8.90;2.77;;;;;;;;;;5015354;28;20954;-85
2024/01/27 14:46:18;;;;;;;8.90;2.63;;;;;;;;;;5013670;28;20568;-86
2024/01/27 14:48:46;;;;;;;6.33;2.30;;;;;;;;;;5016444;28;20518;-84
2024/01/27 14:51:13;;;;;;;8.83;3.20;;;;;;;;;;5015533;28;20546;-85